sensor_id;sensor_type;location;lat;lon;timestamp;P1;durP1;ratioP1;P2;durP2;ratioP2
3625;SDS011;1827;50.534;8.316;2022-09-17T00:00:05;27.33;;;8.07;;
3625;SDS011;1827;50.534;8.316;2022-09-17T00:02:34;33.27;;;9.13;;
3625;SDS011;1827;50.534;8.316;2022-09-17T00:04:59;29.07;;;8.83;;
3625;SDS011;1827;50.534;8.316;2022-09-17T00:07:25;30.07;;;9.27;;
3625;SDS011;1827;50.534;8.316;2022-09-17T00:09:52;36.43;;;9.23;;
3625;SDS011;1827;50.534;8.316;2022-09-17T00:12:17;33.20;;;9.83;;
3625;SDS011;1827;50.534;8.316;2022-09-17T00:14:43;39.70;;;10.20;;
3625;SDS011;1827;50.534;8.316;2022-09-17T00:17:09;34.00;;;11.63;;
3625;SDS011;1827;50.534;8.316;2022-09-17T00:19:34;32.43;;;10.20;;
3625;SDS011;1827;50.534;8.316;2022-09-17T00:22:00;31.50;;;9.53;;
3625;SDS011;1827;50.534;8.316;2022-09-17T00:24:26;31.93;;;9.80;;
3625;SDS011;1827;50.534;8.316;2022-09-17T00:26:52;32.50;;;10.27;;
3625;SDS011;1827;50.534;8.316;2022-09-17T00:29:18;29.40;;;9.37;;
3625;SDS011;1827;50.534;8.316;2022-09-17T00:31:43;30.90;;;9.30;;
3625;SDS011;1827;50.534;8.316;2022-09-17T00:34:09;31.83;;;10.67;;
3625;SDS011;1827;50.534;8.316;2022-09-17T00:36:36;35.57;;;9.53;;
3625;SDS011;1827;50.534;8.316;2022-09-17T00:39:04;28.27;;;9.20;;
3625;SDS011;1827;50.534;8.316;2022-09-17T00:41:32;40.80;;;9.17;;
3625;SDS011;1827;50.534;8.316;2022-09-17T00:44:01;36.60;;;8.53;;
3625;SDS011;1827;50.534;8.316;2022-09-17T00:46:46;32.40;;;8.40;;
3625;SDS011;1827;50.534;8.316;2022-09-17T00:51:54;29.87;;;8.50;;
3625;SDS011;1827;50.534;8.316;2022-09-17T00:54:25;29.50;;;8.20;;
3625;SDS011;1827;50.534;8.316;2022-09-17T00:56:52;29.80;;;8.97;;
3625;SDS011;1827;50.534;8.316;2022-09-17T00:59:18;26.20;;;9.73;;
3625;SDS011;1827;50.534;8.316;2022-09-17T01:01:46;28.30;;;9.97;;
3625;SDS011;1827;50.534;8.316;2022-09-17T01:04:16;31.03;;;11.30;;
3625;SDS011;1827;50.534;8.316;2022-09-17T01:09:24;27.73;;;9.77;;
3625;SDS011;1827;50.534;8.316;2022-09-17T01:31:54;29.37;;;10.70;;
3625;SDS011;1827;50.534;8.316;2022-09-17T01:37:18;21.80;;;8.27;;
3625;SDS011;1827;50.534;8.316;2022-09-17T01:39:59;22.90;;;8.70;;
3625;SDS011;1827;50.534;8.316;2022-09-17T01:42:50;28.87;;;9.17;;
3625;SDS011;1827;50.534;8.316;2022-09-17T01:45:38;27.23;;;10.00;;
3625;SDS011;1827;50.534;8.316;2022-09-17T01:48:09;23.60;;;8.83;;
3625;SDS011;1827;50.534;8.316;2022-09-17T01:50:46;26.27;;;9.07;;
3625;SDS011;1827;50.534;8.316;2022-09-17T01:53:14;27.57;;;8.73;;
3625;SDS011;1827;50.534;8.316;2022-09-17T01:55:43;28.00;;;10.10;;
3625;SDS011;1827;50.534;8.316;2022-09-17T01:58:18;25.70;;;8.60;;
3625;SDS011;1827;50.534;8.316;2022-09-17T02:00:50;24.70;;;9.10;;
3625;SDS011;1827;50.534;8.316;2022-09-17T02:03:24;23.33;;;8.50;;
3625;SDS011;1827;50.534;8.316;2022-09-17T02:05:56;22.00;;;8.50;;
3625;SDS011;1827;50.534;8.316;2022-09-17T02:09:08;23.40;;;8.73;;
3625;SDS011;1827;50.534;8.316;2022-09-17T02:11:41;21.30;;;8.20;;
3625;SDS011;1827;50.534;8.316;2022-09-17T02:14:14;26.90;;;8.07;;
3625;SDS011;1827;50.534;8.316;2022-09-17T02:16:53;23.90;;;7.90;;
3625;SDS011;1827;50.534;8.316;2022-09-17T02:19:33;19.80;;;7.10;;
3625;SDS011;1827;50.534;8.316;2022-09-17T02:22:08;21.47;;;7.40;;
3625;SDS011;1827;50.534;8.316;2022-09-17T02:24:51;23.03;;;8.37;;
3625;SDS011;1827;50.534;8.316;2022-09-17T02:27:56;24.67;;;8.20;;
3625;SDS011;1827;50.534;8.316;2022-09-17T02:30:29;22.27;;;8.83;;
3625;SDS011;1827;50.534;8.316;2022-09-17T02:32:56;25.60;;;8.63;;
3625;SDS011;1827;50.534;8.316;2022-09-17T02:35:21;24.73;;;9.10;;
3625;SDS011;1827;50.534;8.316;2022-09-17T02:37:48;25.17;;;9.47;;
3625;SDS011;1827;50.534;8.316;2022-09-17T02:40:14;31.07;;;9.83;;
3625;SDS011;1827;50.534;8.316;2022-09-17T02:42:53;29.13;;;10.53;;
3625;SDS011;1827;50.534;8.316;2022-09-17T02:45:29;27.17;;;10.90;;
3625;SDS011;1827;50.534;8.316;2022-09-17T02:48:23;28.17;;;11.03;;
3625;SDS011;1827;50.534;8.316;2022-09-17T02:53:33;30.50;;;11.50;;
3625;SDS011;1827;50.534;8.316;2022-09-17T02:58:49;36.47;;;12.50;;
3625;SDS011;1827;50.534;8.316;2022-09-17T03:03:55;33.63;;;13.00;;
3625;SDS011;1827;50.534;8.316;2022-09-17T03:06:24;37.93;;;13.00;;
3625;SDS011;1827;50.534;8.316;2022-09-17T03:08:50;30.67;;;13.67;;
3625;SDS011;1827;50.534;8.316;2022-09-17T03:11:16;32.93;;;13.57;;
3625;SDS011;1827;50.534;8.316;2022-09-17T03:13:42;30.13;;;13.60;;
3625;SDS011;1827;50.534;8.316;2022-09-17T03:16:08;31.00;;;13.27;;
3625;SDS011;1827;50.534;8.316;2022-09-17T03:18:34;28.90;;;12.40;;
3625;SDS011;1827;50.534;8.316;2022-09-17T03:20:59;33.43;;;11.83;;
3625;SDS011;1827;50.534;8.316;2022-09-17T03:23:25;29.90;;;11.63;;
3625;SDS011;1827;50.534;8.316;2022-09-17T03:25:52;25.00;;;11.13;;
3625;SDS011;1827;50.534;8.316;2022-09-17T03:28:19;31.67;;;10.30;;
3625;SDS011;1827;50.534;8.316;2022-09-17T03:30:45;26.90;;;10.50;;
3625;SDS011;1827;50.534;8.316;2022-09-17T03:33:11;27.60;;;10.30;;
3625;SDS011;1827;50.534;8.316;2022-09-17T03:35:37;24.27;;;9.80;;
3625;SDS011;1827;50.534;8.316;2022-09-17T03:38:07;25.10;;;9.63;;
3625;SDS011;1827;50.534;8.316;2022-09-17T03:40:32;26.43;;;10.60;;
3625;SDS011;1827;50.534;8.316;2022-09-17T03:42:58;27.50;;;8.83;;
3625;SDS011;1827;50.534;8.316;2022-09-17T03:45:24;24.20;;;8.80;;
3625;SDS011;1827;50.534;8.316;2022-09-17T03:47:50;24.73;;;9.50;;
3625;SDS011;1827;50.534;8.316;2022-09-17T03:50:15;21.70;;;8.60;;
3625;SDS011;1827;50.534;8.316;2022-09-17T03:52:42;24.53;;;8.57;;
3625;SDS011;1827;50.534;8.316;2022-09-17T03:55:08;22.73;;;8.10;;
3625;SDS011;1827;50.534;8.316;2022-09-17T03:57:34;23.47;;;7.60;;
3625;SDS011;1827;50.534;8.316;2022-09-17T04:00:00;23.67;;;8.10;;
3625;SDS011;1827;50.534;8.316;2022-09-17T04:02:25;21.57;;;7.50;;
3625;SDS011;1827;50.534;8.316;2022-09-17T04:04:51;23.13;;;7.53;;
3625;SDS011;1827;50.534;8.316;2022-09-17T04:07:18;25.20;;;7.80;;
3625;SDS011;1827;50.534;8.316;2022-09-17T04:09:43;26.17;;;7.20;;
3625;SDS011;1827;50.534;8.316;2022-09-17T04:12:09;21.60;;;7.60;;
3625;SDS011;1827;50.534;8.316;2022-09-17T04:14:35;23.90;;;7.33;;
3625;SDS011;1827;50.534;8.316;2022-09-17T04:17:00;21.87;;;7.40;;
3625;SDS011;1827;50.534;8.316;2022-09-17T04:19:26;22.83;;;7.10;;
3625;SDS011;1827;50.534;8.316;2022-09-17T04:21:52;24.17;;;7.30;;
3625;SDS011;1827;50.534;8.316;2022-09-17T04:24:17;26.10;;;7.57;;
3625;SDS011;1827;50.534;8.316;2022-09-17T04:26:43;27.07;;;7.07;;
3625;SDS011;1827;50.534;8.316;2022-09-17T04:29:09;24.67;;;7.10;;
3625;SDS011;1827;50.534;8.316;2022-09-17T04:31:34;31.70;;;7.63;;
3625;SDS011;1827;50.534;8.316;2022-09-17T04:34:00;30.33;;;6.73;;
3625;SDS011;1827;50.534;8.316;2022-09-17T04:36:26;23.33;;;6.07;;
3625;SDS011;1827;50.534;8.316;2022-09-17T04:38:52;22.17;;;5.63;;
3625;SDS011;1827;50.534;8.316;2022-09-17T04:41:17;33.53;;;6.23;;
3625;SDS011;1827;50.534;8.316;2022-09-17T04:43:43;21.40;;;5.70;;
3625;SDS011;1827;50.534;8.316;2022-09-17T04:46:09;33.20;;;6.27;;
3625;SDS011;1827;50.534;8.316;2022-09-17T04:48:35;22.80;;;5.53;;
3625;SDS011;1827;50.534;8.316;2022-09-17T04:51:01;28.33;;;6.20;;
3625;SDS011;1827;50.534;8.316;2022-09-17T04:53:27;23.07;;;4.87;;
3625;SDS011;1827;50.534;8.316;2022-09-17T04:55:53;25.67;;;6.10;;
3625;SDS011;1827;50.534;8.316;2022-09-17T04:58:19;24.03;;;5.83;;
3625;SDS011;1827;50.534;8.316;2022-09-17T05:00:44;40.77;;;5.73;;
3625;SDS011;1827;50.534;8.316;2022-09-17T05:03:10;28.40;;;5.73;;
3625;SDS011;1827;50.534;8.316;2022-09-17T05:05:36;30.13;;;5.73;;
3625;SDS011;1827;50.534;8.316;2022-09-17T05:08:01;29.93;;;5.63;;
3625;SDS011;1827;50.534;8.316;2022-09-17T05:10:27;29.50;;;5.70;;
3625;SDS011;1827;50.534;8.316;2022-09-17T05:12:54;28.43;;;6.07;;
3625;SDS011;1827;50.534;8.316;2022-09-17T05:15:20;34.67;;;7.20;;
3625;SDS011;1827;50.534;8.316;2022-09-17T05:17:47;28.97;;;6.70;;
3625;SDS011;1827;50.534;8.316;2022-09-17T05:20:13;34.73;;;8.23;;
3625;SDS011;1827;50.534;8.316;2022-09-17T05:22:43;32.30;;;7.93;;
3625;SDS011;1827;50.534;8.316;2022-09-17T05:25:11;29.10;;;7.23;;
3625;SDS011;1827;50.534;8.316;2022-09-17T05:27:39;36.70;;;7.27;;
3625;SDS011;1827;50.534;8.316;2022-09-17T05:30:05;23.30;;;6.80;;
3625;SDS011;1827;50.534;8.316;2022-09-17T05:32:32;34.80;;;7.93;;
3625;SDS011;1827;50.534;8.316;2022-09-17T05:34:58;28.63;;;8.00;;
3625;SDS011;1827;50.534;8.316;2022-09-17T05:37:24;30.87;;;7.70;;
3625;SDS011;1827;50.534;8.316;2022-09-17T05:39:50;32.70;;;8.37;;
3625;SDS011;1827;50.534;8.316;2022-09-17T05:42:16;30.20;;;8.43;;
3625;SDS011;1827;50.534;8.316;2022-09-17T05:44:42;36.17;;;8.13;;
3625;SDS011;1827;50.534;8.316;2022-09-17T05:47:07;26.50;;;7.93;;
3625;SDS011;1827;50.534;8.316;2022-09-17T05:49:33;33.87;;;7.97;;
3625;SDS011;1827;50.534;8.316;2022-09-17T05:51:59;26.50;;;7.47;;
3625;SDS011;1827;50.534;8.316;2022-09-17T05:54:27;30.60;;;7.90;;
3625;SDS011;1827;50.534;8.316;2022-09-17T05:56:52;35.00;;;8.90;;
3625;SDS011;1827;50.534;8.316;2022-09-17T05:59:18;35.83;;;9.00;;
3625;SDS011;1827;50.534;8.316;2022-09-17T06:01:44;31.17;;;8.33;;
3625;SDS011;1827;50.534;8.316;2022-09-17T06:04:10;34.23;;;7.47;;
3625;SDS011;1827;50.534;8.316;2022-09-17T06:06:36;29.40;;;8.30;;
3625;SDS011;1827;50.534;8.316;2022-09-17T06:09:03;33.20;;;8.33;;
3625;SDS011;1827;50.534;8.316;2022-09-17T06:11:30;29.27;;;7.27;;
3625;SDS011;1827;50.534;8.316;2022-09-17T06:13:55;28.40;;;7.30;;
3625;SDS011;1827;50.534;8.316;2022-09-17T06:16:22;41.73;;;7.40;;
3625;SDS011;1827;50.534;8.316;2022-09-17T06:18:48;45.93;;;7.60;;
3625;SDS011;1827;50.534;8.316;2022-09-17T06:21:16;34.90;;;7.73;;
3625;SDS011;1827;50.534;8.316;2022-09-17T06:23:42;35.13;;;7.37;;
3625;SDS011;1827;50.534;8.316;2022-09-17T06:26:08;33.43;;;6.63;;
3625;SDS011;1827;50.534;8.316;2022-09-17T06:28:35;28.83;;;7.43;;
3625;SDS011;1827;50.534;8.316;2022-09-17T06:31:02;35.03;;;7.17;;
3625;SDS011;1827;50.534;8.316;2022-09-17T06:33:29;31.73;;;6.97;;
3625;SDS011;1827;50.534;8.316;2022-09-17T06:35:59;35.03;;;7.23;;
3625;SDS011;1827;50.534;8.316;2022-09-17T06:38:27;27.73;;;6.77;;
3625;SDS011;1827;50.534;8.316;2022-09-17T06:40:54;29.40;;;7.20;;
3625;SDS011;1827;50.534;8.316;2022-09-17T06:43:20;39.50;;;7.83;;
3625;SDS011;1827;50.534;8.316;2022-09-17T06:46:00;31.30;;;6.87;;
3625;SDS011;1827;50.534;8.316;2022-09-17T06:48:28;42.93;;;7.63;;
3625;SDS011;1827;50.534;8.316;2022-09-17T06:50:55;35.30;;;6.47;;
3625;SDS011;1827;50.534;8.316;2022-09-17T06:53:25;29.40;;;6.57;;
3625;SDS011;1827;50.534;8.316;2022-09-17T06:55:51;31.23;;;5.83;;
3625;SDS011;1827;50.534;8.316;2022-09-17T06:58:20;41.63;;;6.73;;
3625;SDS011;1827;50.534;8.316;2022-09-17T07:00:46;32.10;;;6.30;;
3625;SDS011;1827;50.534;8.316;2022-09-17T07:03:11;31.67;;;6.07;;
3625;SDS011;1827;50.534;8.316;2022-09-17T07:05:37;43.43;;;7.30;;
3625;SDS011;1827;50.534;8.316;2022-09-17T07:08:03;29.33;;;6.23;;
3625;SDS011;1827;50.534;8.316;2022-09-17T07:10:29;31.13;;;6.50;;
3625;SDS011;1827;50.534;8.316;2022-09-17T07:12:56;32.90;;;6.70;;
3625;SDS011;1827;50.534;8.316;2022-09-17T07:15:23;28.50;;;6.00;;
3625;SDS011;1827;50.534;8.316;2022-09-17T07:17:48;32.53;;;6.20;;
3625;SDS011;1827;50.534;8.316;2022-09-17T07:20:15;31.17;;;7.20;;
3625;SDS011;1827;50.534;8.316;2022-09-17T07:22:40;27.43;;;7.00;;
3625;SDS011;1827;50.534;8.316;2022-09-17T07:25:06;23.80;;;6.10;;
3625;SDS011;1827;50.534;8.316;2022-09-17T07:27:32;27.93;;;6.17;;
3625;SDS011;1827;50.534;8.316;2022-09-17T07:29:58;27.40;;;6.57;;
3625;SDS011;1827;50.534;8.316;2022-09-17T07:32:24;27.67;;;6.40;;
3625;SDS011;1827;50.534;8.316;2022-09-17T07:34:50;25.77;;;5.60;;
3625;SDS011;1827;50.534;8.316;2022-09-17T07:37:16;24.93;;;5.93;;
3625;SDS011;1827;50.534;8.316;2022-09-17T07:39:42;25.87;;;6.13;;
3625;SDS011;1827;50.534;8.316;2022-09-17T07:42:08;25.90;;;6.30;;
3625;SDS011;1827;50.534;8.316;2022-09-17T07:44:35;25.60;;;5.53;;
3625;SDS011;1827;50.534;8.316;2022-09-17T07:47:01;24.40;;;5.60;;
3625;SDS011;1827;50.534;8.316;2022-09-17T07:49:27;25.80;;;5.60;;
3625;SDS011;1827;50.534;8.316;2022-09-17T07:51:53;27.50;;;5.40;;
3625;SDS011;1827;50.534;8.316;2022-09-17T07:54:19;28.17;;;5.57;;
3625;SDS011;1827;50.534;8.316;2022-09-17T07:56:45;29.33;;;5.73;;
3625;SDS011;1827;50.534;8.316;2022-09-17T07:59:11;21.30;;;4.40;;
3625;SDS011;1827;50.534;8.316;2022-09-17T08:01:37;22.30;;;3.63;;
3625;SDS011;1827;50.534;8.316;2022-09-17T08:04:03;24.90;;;3.80;;
3625;SDS011;1827;50.534;8.316;2022-09-17T08:06:30;20.40;;;3.53;;
3625;SDS011;1827;50.534;8.316;2022-09-17T08:08:57;20.47;;;3.80;;
3625;SDS011;1827;50.534;8.316;2022-09-17T08:11:26;20.37;;;3.67;;
3625;SDS011;1827;50.534;8.316;2022-09-17T08:13:53;20.27;;;3.70;;
3625;SDS011;1827;50.534;8.316;2022-09-17T08:16:20;21.40;;;3.47;;
3625;SDS011;1827;50.534;8.316;2022-09-17T08:18:46;19.17;;;3.30;;
3625;SDS011;1827;50.534;8.316;2022-09-17T08:21:14;22.00;;;4.10;;
3625;SDS011;1827;50.534;8.316;2022-09-17T08:23:41;21.70;;;4.30;;
3625;SDS011;1827;50.534;8.316;2022-09-17T08:26:15;22.50;;;3.63;;
3625;SDS011;1827;50.534;8.316;2022-09-17T08:28:46;18.80;;;3.57;;
3625;SDS011;1827;50.534;8.316;2022-09-17T08:31:14;24.93;;;4.17;;
3625;SDS011;1827;50.534;8.316;2022-09-17T08:33:40;24.60;;;4.20;;
3625;SDS011;1827;50.534;8.316;2022-09-17T08:36:09;22.93;;;4.20;;
3625;SDS011;1827;50.534;8.316;2022-09-17T08:38:37;21.80;;;4.00;;
3625;SDS011;1827;50.534;8.316;2022-09-17T08:41:13;19.20;;;3.77;;
3625;SDS011;1827;50.534;8.316;2022-09-17T08:46:25;25.53;;;4.30;;
3625;SDS011;1827;50.534;8.316;2022-09-17T08:49:01;19.87;;;4.17;;
3625;SDS011;1827;50.534;8.316;2022-09-17T08:57:02;21.53;;;3.80;;
3625;SDS011;1827;50.534;8.316;2022-09-17T09:02:36;19.70;;;3.67;;
3625;SDS011;1827;50.534;8.316;2022-09-17T09:05:18;18.43;;;3.30;;
3625;SDS011;1827;50.534;8.316;2022-09-17T09:07:51;20.30;;;3.40;;
3625;SDS011;1827;50.534;8.316;2022-09-17T09:10:22;18.20;;;3.27;;
3625;SDS011;1827;50.534;8.316;2022-09-17T09:12:51;21.27;;;3.27;;
3625;SDS011;1827;50.534;8.316;2022-09-17T09:15:26;21.70;;;3.43;;
3625;SDS011;1827;50.534;8.316;2022-09-17T09:20:49;21.27;;;3.20;;
3625;SDS011;1827;50.534;8.316;2022-09-17T09:24:13;24.90;;;3.60;;
3625;SDS011;1827;50.534;8.316;2022-09-17T09:29:25;23.03;;;2.97;;
3625;SDS011;1827;50.534;8.316;2022-09-17T09:32:19;25.00;;;2.80;;
3625;SDS011;1827;50.534;8.316;2022-09-17T09:35:11;20.67;;;3.20;;
3625;SDS011;1827;50.534;8.316;2022-09-17T09:38:03;22.80;;;3.20;;
3625;SDS011;1827;50.534;8.316;2022-09-17T09:40:40;24.53;;;4.13;;
3625;SDS011;1827;50.534;8.316;2022-09-17T09:43:44;27.37;;;3.30;;
3625;SDS011;1827;50.534;8.316;2022-09-17T09:49:04;25.90;;;3.10;;
3625;SDS011;1827;50.534;8.316;2022-09-17T09:57:47;19.13;;;2.70;;
3625;SDS011;1827;50.534;8.316;2022-09-17T10:00:38;27.97;;;3.47;;
3625;SDS011;1827;50.534;8.316;2022-09-17T10:05:57;21.70;;;3.20;;
3625;SDS011;1827;50.534;8.316;2022-09-17T10:08:25;22.73;;;2.90;;
3625;SDS011;1827;50.534;8.316;2022-09-17T10:10:57;22.33;;;2.80;;
3625;SDS011;1827;50.534;8.316;2022-09-17T10:13:33;21.27;;;3.10;;
3625;SDS011;1827;50.534;8.316;2022-09-17T10:18:42;18.57;;;2.50;;
3625;SDS011;1827;50.534;8.316;2022-09-17T10:21:18;30.97;;;2.97;;
3625;SDS011;1827;50.534;8.316;2022-09-17T10:26:47;15.47;;;2.17;;
3625;SDS011;1827;50.534;8.316;2022-09-17T10:29:14;19.87;;;3.30;;
3625;SDS011;1827;50.534;8.316;2022-09-17T10:31:49;26.50;;;3.33;;
3625;SDS011;1827;50.534;8.316;2022-09-17T10:36:51;21.40;;;2.97;;
3625;SDS011;1827;50.534;8.316;2022-09-17T10:41:55;17.47;;;2.40;;
3625;SDS011;1827;50.534;8.316;2022-09-17T10:44:23;19.60;;;2.63;;
3625;SDS011;1827;50.534;8.316;2022-09-17T10:46:54;17.67;;;2.17;;
3625;SDS011;1827;50.534;8.316;2022-09-17T10:49:45;17.90;;;2.50;;
3625;SDS011;1827;50.534;8.316;2022-09-17T10:52:19;19.83;;;2.57;;
3625;SDS011;1827;50.534;8.316;2022-09-17T11:00:37;18.50;;;2.70;;
3625;SDS011;1827;50.534;8.316;2022-09-17T11:09:22;16.73;;;2.40;;
3625;SDS011;1827;50.534;8.316;2022-09-17T11:12:14;15.17;;;1.57;;
3625;SDS011;1827;50.534;8.316;2022-09-17T11:26:41;22.40;;;2.80;;
3625;SDS011;1827;50.534;8.316;2022-09-17T11:34:46;19.77;;;2.10;;
3625;SDS011;1827;50.534;8.316;2022-09-17T11:37:34;26.40;;;2.50;;
3625;SDS011;1827;50.534;8.316;2022-09-17T11:42:52;16.10;;;2.90;;
3625;SDS011;1827;50.534;8.316;2022-09-17T11:45:38;19.00;;;3.07;;
3625;SDS011;1827;50.534;8.316;2022-09-17T11:48:12;16.43;;;2.20;;
3625;SDS011;1827;50.534;8.316;2022-09-17T11:50:44;17.07;;;2.10;;
3625;SDS011;1827;50.534;8.316;2022-09-17T11:53:20;16.00;;;1.93;;
3625;SDS011;1827;50.534;8.316;2022-09-17T11:55:59;18.27;;;2.33;;
3625;SDS011;1827;50.534;8.316;2022-09-17T12:03:58;19.00;;;2.30;;
3625;SDS011;1827;50.534;8.316;2022-09-17T12:06:36;24.93;;;2.53;;
3625;SDS011;1827;50.534;8.316;2022-09-17T12:09:17;17.10;;;1.80;;
3625;SDS011;1827;50.534;8.316;2022-09-17T12:17:15;19.60;;;2.00;;
3625;SDS011;1827;50.534;8.316;2022-09-17T12:19:51;15.80;;;1.80;;
3625;SDS011;1827;50.534;8.316;2022-09-17T12:22:29;16.90;;;2.20;;
3625;SDS011;1827;50.534;8.316;2022-09-17T12:24:58;15.27;;;1.77;;
3625;SDS011;1827;50.534;8.316;2022-09-17T12:27:36;20.70;;;2.57;;
3625;SDS011;1827;50.534;8.316;2022-09-17T12:30:14;17.33;;;2.03;;
3625;SDS011;1827;50.534;8.316;2022-09-17T12:35:15;19.83;;;2.47;;
3625;SDS011;1827;50.534;8.316;2022-09-17T12:38:09;18.33;;;2.20;;
3625;SDS011;1827;50.534;8.316;2022-09-17T12:41:01;16.23;;;2.27;;
3625;SDS011;1827;50.534;8.316;2022-09-17T13:00:10;20.23;;;1.83;;
3625;SDS011;1827;50.534;8.316;2022-09-17T13:08:12;13.97;;;1.57;;
3625;SDS011;1827;50.534;8.316;2022-09-17T13:11:11;18.80;;;1.70;;
3625;SDS011;1827;50.534;8.316;2022-09-17T13:19:14;20.37;;;1.80;;
3625;SDS011;1827;50.534;8.316;2022-09-17T13:21:51;14.87;;;1.70;;
3625;SDS011;1827;50.534;8.316;2022-09-17T13:24:23;14.67;;;1.70;;
3625;SDS011;1827;50.534;8.316;2022-09-17T13:26:51;14.70;;;1.60;;
3625;SDS011;1827;50.534;8.316;2022-09-17T13:37:38;16.60;;;1.60;;
3625;SDS011;1827;50.534;8.316;2022-09-17T13:40:35;16.40;;;1.70;;
3625;SDS011;1827;50.534;8.316;2022-09-17T13:45:27;15.30;;;1.97;;
3625;SDS011;1827;50.534;8.316;2022-09-17T13:50:31;15.83;;;1.90;;
3625;SDS011;1827;50.534;8.316;2022-09-17T13:58:04;17.00;;;2.10;;
3625;SDS011;1827;50.534;8.316;2022-09-17T14:19:00;13.63;;;1.50;;
3625;SDS011;1827;50.534;8.316;2022-09-17T14:27:11;15.60;;;1.60;;
3625;SDS011;1827;50.534;8.316;2022-09-17T14:30:20;15.63;;;1.43;;
3625;SDS011;1827;50.534;8.316;2022-09-17T14:32:35;13.60;;;1.40;;
3625;SDS011;1827;50.534;8.316;2022-09-17T14:37:44;19.33;;;2.57;;
3625;SDS011;1827;50.534;8.316;2022-09-17T14:40:16;15.87;;;1.53;;
3625;SDS011;1827;50.534;8.316;2022-09-17T14:42:43;16.03;;;1.73;;
3625;SDS011;1827;50.534;8.316;2022-09-17T14:45:16;13.97;;;1.63;;
3625;SDS011;1827;50.534;8.316;2022-09-17T14:47:46;14.77;;;1.67;;
3625;SDS011;1827;50.534;8.316;2022-09-17T14:50:22;15.47;;;1.90;;
3625;SDS011;1827;50.534;8.316;2022-09-17T14:52:50;17.57;;;1.87;;
3625;SDS011;1827;50.534;8.316;2022-09-17T14:57:47;14.47;;;1.60;;
3625;SDS011;1827;50.534;8.316;2022-09-17T15:02:52;17.30;;;2.10;;
3625;SDS011;1827;50.534;8.316;2022-09-17T15:05:21;15.30;;;1.73;;
3625;SDS011;1827;50.534;8.316;2022-09-17T15:07:47;14.23;;;1.70;;
3625;SDS011;1827;50.534;8.316;2022-09-17T15:10:22;13.50;;;1.60;;
3625;SDS011;1827;50.534;8.316;2022-09-17T15:12:48;17.60;;;1.50;;
3625;SDS011;1827;50.534;8.316;2022-09-17T15:15:19;15.60;;;1.73;;
3625;SDS011;1827;50.534;8.316;2022-09-17T15:17:50;14.97;;;1.80;;
3625;SDS011;1827;50.534;8.316;2022-09-17T15:20:23;15.67;;;1.83;;
3625;SDS011;1827;50.534;8.316;2022-09-17T15:23:00;17.77;;;1.83;;
3625;SDS011;1827;50.534;8.316;2022-09-17T15:25:36;16.37;;;2.03;;
3625;SDS011;1827;50.534;8.316;2022-09-17T15:28:12;16.23;;;1.70;;
3625;SDS011;1827;50.534;8.316;2022-09-17T15:30:57;15.00;;;2.13;;
3625;SDS011;1827;50.534;8.316;2022-09-17T15:33:23;14.40;;;1.63;;
3625;SDS011;1827;50.534;8.316;2022-09-17T15:35:59;14.73;;;1.70;;
3625;SDS011;1827;50.534;8.316;2022-09-17T15:38:37;17.00;;;1.90;;
3625;SDS011;1827;50.534;8.316;2022-09-17T15:46:48;24.60;;;2.13;;
3625;SDS011;1827;50.534;8.316;2022-09-17T15:49:28;15.47;;;2.20;;
3625;SDS011;1827;50.534;8.316;2022-09-17T15:54:55;20.20;;;1.77;;
3625;SDS011;1827;50.534;8.316;2022-09-17T15:57:22;14.63;;;1.50;;
3625;SDS011;1827;50.534;8.316;2022-09-17T15:59:49;16.60;;;1.90;;
3625;SDS011;1827;50.534;8.316;2022-09-17T16:02:23;16.20;;;1.80;;
3625;SDS011;1827;50.534;8.316;2022-09-17T16:07:49;16.10;;;1.80;;
3625;SDS011;1827;50.534;8.316;2022-09-17T16:10:15;16.07;;;1.93;;
3625;SDS011;1827;50.534;8.316;2022-09-17T16:12:42;16.60;;;2.07;;
3625;SDS011;1827;50.534;8.316;2022-09-17T16:15:08;16.00;;;1.90;;
3625;SDS011;1827;50.534;8.316;2022-09-17T16:17:41;17.00;;;1.70;;
3625;SDS011;1827;50.534;8.316;2022-09-17T16:20:13;19.77;;;2.10;;
3625;SDS011;1827;50.534;8.316;2022-09-17T16:22:42;14.70;;;1.77;;
3625;SDS011;1827;50.534;8.316;2022-09-17T16:25:09;14.47;;;1.60;;
3625;SDS011;1827;50.534;8.316;2022-09-17T16:30:16;15.07;;;1.90;;
3625;SDS011;1827;50.534;8.316;2022-09-17T16:32:45;14.50;;;2.00;;
3625;SDS011;1827;50.534;8.316;2022-09-17T16:35:12;16.20;;;1.87;;
3625;SDS011;1827;50.534;8.316;2022-09-17T16:37:49;20.57;;;5.53;;
3625;SDS011;1827;50.534;8.316;2022-09-17T16:40:17;23.87;;;7.23;;
3625;SDS011;1827;50.534;8.316;2022-09-17T16:42:44;27.10;;;6.30;;
3625;SDS011;1827;50.534;8.316;2022-09-17T16:45:11;18.10;;;3.37;;
3625;SDS011;1827;50.534;8.316;2022-09-17T16:47:37;18.57;;;2.70;;
3625;SDS011;1827;50.534;8.316;2022-09-17T16:50:08;18.93;;;2.13;;
3625;SDS011;1827;50.534;8.316;2022-09-17T16:52:35;16.40;;;2.00;;
3625;SDS011;1827;50.534;8.316;2022-09-17T16:55:02;17.07;;;1.87;;
3625;SDS011;1827;50.534;8.316;2022-09-17T16:57:29;17.30;;;1.90;;
3625;SDS011;1827;50.534;8.316;2022-09-17T16:59:55;18.03;;;2.03;;
3625;SDS011;1827;50.534;8.316;2022-09-17T17:02:22;19.33;;;2.30;;
3625;SDS011;1827;50.534;8.316;2022-09-17T17:04:48;17.70;;;2.70;;
3625;SDS011;1827;50.534;8.316;2022-09-17T17:07:13;18.50;;;2.87;;
3625;SDS011;1827;50.534;8.316;2022-09-17T17:09:39;19.20;;;2.90;;
3625;SDS011;1827;50.534;8.316;2022-09-17T17:12:05;19.10;;;3.17;;
3625;SDS011;1827;50.534;8.316;2022-09-17T17:14:32;17.00;;;3.20;;
3625;SDS011;1827;50.534;8.316;2022-09-17T17:16:58;19.20;;;3.23;;
3625;SDS011;1827;50.534;8.316;2022-09-17T17:19:23;18.67;;;3.70;;
3625;SDS011;1827;50.534;8.316;2022-09-17T17:21:51;21.97;;;4.10;;
3625;SDS011;1827;50.534;8.316;2022-09-17T17:24:17;24.13;;;5.53;;
3625;SDS011;1827;50.534;8.316;2022-09-17T17:26:43;22.77;;;4.33;;
3625;SDS011;1827;50.534;8.316;2022-09-17T17:29:08;23.63;;;5.40;;
3625;SDS011;1827;50.534;8.316;2022-09-17T17:31:34;19.60;;;4.13;;
3625;SDS011;1827;50.534;8.316;2022-09-17T17:34:00;20.97;;;4.10;;
3625;SDS011;1827;50.534;8.316;2022-09-17T17:36:26;20.80;;;3.10;;
3625;SDS011;1827;50.534;8.316;2022-09-17T17:38:58;17.67;;;3.10;;
3625;SDS011;1827;50.534;8.316;2022-09-17T17:41:25;19.77;;;2.50;;
3625;SDS011;1827;50.534;8.316;2022-09-17T17:43:52;17.50;;;2.20;;
3625;SDS011;1827;50.534;8.316;2022-09-17T17:46:19;25.57;;;2.70;;
3625;SDS011;1827;50.534;8.316;2022-09-17T17:48:45;18.17;;;2.67;;
3625;SDS011;1827;50.534;8.316;2022-09-17T17:51:11;18.70;;;2.83;;
3625;SDS011;1827;50.534;8.316;2022-09-17T17:53:39;22.50;;;2.60;;
3625;SDS011;1827;50.534;8.316;2022-09-17T17:56:07;20.30;;;3.60;;
3625;SDS011;1827;50.534;8.316;2022-09-17T17:58:34;18.30;;;3.27;;
3625;SDS011;1827;50.534;8.316;2022-09-17T18:01:10;18.27;;;2.93;;
3625;SDS011;1827;50.534;8.316;2022-09-17T18:03:37;19.03;;;2.30;;
3625;SDS011;1827;50.534;8.316;2022-09-17T18:06:04;17.30;;;2.30;;
3625;SDS011;1827;50.534;8.316;2022-09-17T18:08:30;17.63;;;2.83;;
3625;SDS011;1827;50.534;8.316;2022-09-17T18:10:57;17.53;;;2.80;;
3625;SDS011;1827;50.534;8.316;2022-09-17T18:13:28;17.87;;;2.60;;
3625;SDS011;1827;50.534;8.316;2022-09-17T18:15:58;17.20;;;2.50;;
3625;SDS011;1827;50.534;8.316;2022-09-17T18:18:25;16.50;;;2.90;;
3625;SDS011;1827;50.534;8.316;2022-09-17T18:21:02;17.30;;;3.00;;
3625;SDS011;1827;50.534;8.316;2022-09-17T18:23:31;19.73;;;3.03;;
3625;SDS011;1827;50.534;8.316;2022-09-17T18:25:58;22.43;;;2.77;;
3625;SDS011;1827;50.534;8.316;2022-09-17T18:28:25;16.37;;;2.40;;
3625;SDS011;1827;50.534;8.316;2022-09-17T18:30:52;17.03;;;2.70;;
3625;SDS011;1827;50.534;8.316;2022-09-17T18:33:19;18.90;;;2.93;;
3625;SDS011;1827;50.534;8.316;2022-09-17T18:35:50;15.93;;;2.47;;
3625;SDS011;1827;50.534;8.316;2022-09-17T18:38:21;19.40;;;2.67;;
3625;SDS011;1827;50.534;8.316;2022-09-17T18:40:47;23.83;;;3.10;;
3625;SDS011;1827;50.534;8.316;2022-09-17T18:43:14;20.90;;;3.27;;
3625;SDS011;1827;50.534;8.316;2022-09-17T18:45:39;17.63;;;2.90;;
3625;SDS011;1827;50.534;8.316;2022-09-17T18:48:05;16.73;;;2.70;;
3625;SDS011;1827;50.534;8.316;2022-09-17T18:50:32;16.17;;;2.70;;